createdAt,value
2023-01-03T00:00:43.817Z,10.45
2023-01-03T00:03:17.196Z,10.46
2023-01-03T00:05:46.667Z,10.45
2023-01-03T00:08:15.734Z,10.55
2023-01-03T00:10:45.155Z,10.54
2023-01-03T00:13:13.494Z,10.49
2023-01-03T00:15:42.002Z,10.40
2023-01-03T00:18:10.647Z,10.46
2023-01-03T00:20:39.638Z,10.47
2023-01-03T00:23:08.556Z,10.49
2023-01-03T00:25:37.643Z,10.49
2023-01-03T00:28:06.851Z,10.48
2023-01-03T00:30:35.124Z,10.36
2023-01-03T00:33:04.585Z,10.31
2023-01-03T00:35:33.769Z,10.36
2023-01-03T00:38:02.341Z,10.30
2023-01-03T00:40:31.620Z,10.29
2023-01-03T00:43:17.945Z,10.23
2023-01-03T00:45:46.900Z,10.28
2023-01-03T00:48:15.391Z,10.27
2023-01-03T00:50:44.690Z,10.26
2023-01-03T00:53:13.548Z,10.27
2023-01-03T00:55:42.538Z,10.28
2023-01-03T00:58:11.429Z,10.25
2023-01-03T01:00:40.299Z,10.23
2023-01-03T01:03:09.248Z,10.20
2023-01-03T01:05:37.933Z,10.20
2023-01-03T01:08:06.896Z,10.24
2023-01-03T01:10:35.134Z,10.27
2023-01-03T01:13:04.045Z,10.15
2023-01-03T01:15:33.054Z,10.15
2023-01-03T01:18:01.713Z,10.17
2023-01-03T01:20:30.634Z,10.16
2023-01-03T01:22:59.117Z,10.16
2023-01-03T01:25:28.118Z,10.20
2023-01-03T01:27:56.901Z,10.23
2023-01-03T01:30:25.599Z,10.20
2023-01-03T01:32:54.754Z,10.18
2023-01-03T02:09:53.620Z,10.29
2023-01-03T02:13:02.084Z,10.30
2023-01-03T02:15:57.320Z,10.26
2023-01-03T02:18:40.790Z,10.25
2023-01-03T02:21:43.230Z,10.34
2023-01-03T02:24:16.303Z,10.31
2023-01-03T02:26:54.963Z,10.32
2023-01-03T02:29:25.769Z,10.30
2023-01-03T02:32:27.700Z,10.28
2023-01-03T02:35:13.647Z,10.25
2023-01-03T02:38:08.641Z,10.37
2023-01-03T02:40:37.152Z,10.33
2023-01-03T02:43:08.652Z,10.25
2023-01-03T02:46:04.920Z,10.31
2023-01-03T02:48:40.721Z,10.35
2023-01-03T03:16:07.555Z,10.39
2023-01-03T03:27:11.433Z,10.33
2023-01-03T03:29:40.740Z,10.34
2023-01-03T03:32:09.234Z,10.36
2023-01-03T03:34:38.432Z,10.38
2023-01-03T03:37:15.861Z,10.42
2023-01-03T03:40:02.730Z,10.44
2023-01-03T03:43:29.916Z,10.41
2023-01-03T03:46:09.631Z,10.47
2023-01-03T03:49:30.688Z,10.48
2023-01-03T03:51:58.922Z,10.43
2023-01-03T03:54:26.853Z,10.40
2023-01-03T03:56:58.860Z,10.40
2023-01-03T03:59:27.651Z,10.39
2023-01-03T04:01:57.469Z,10.40
2023-01-03T04:04:29.155Z,10.42
2023-01-03T04:06:57.933Z,10.39
2023-01-03T04:09:26.003Z,10.34
2023-01-03T04:11:54.745Z,10.32
2023-01-03T04:14:24.037Z,10.31
2023-01-03T04:16:52.421Z,10.32
2023-01-03T04:19:21.269Z,10.34
2023-01-03T04:21:49.848Z,10.40
2023-01-03T04:24:20.391Z,10.43
2023-01-03T04:26:49.462Z,10.53
2023-01-03T04:29:18.352Z,10.49
2023-01-03T04:31:46.249Z,10.45
2023-01-03T04:34:14.887Z,10.45
2023-01-03T04:36:44.258Z,10.47
2023-01-03T04:39:12.369Z,10.52
2023-01-03T04:41:40.873Z,10.37
2023-01-03T04:44:10.306Z,10.38
2023-01-03T04:52:18.624Z,10.42
2023-01-03T04:54:46.784Z,10.41
2023-01-03T04:57:15.001Z,10.34
2023-01-03T04:59:43.718Z,10.32
2023-01-03T05:02:12.407Z,10.24
2023-01-03T05:04:44.301Z,10.17
2023-01-03T05:07:12.860Z,10.19
2023-01-03T05:09:41.804Z,10.20
2023-01-03T05:12:21.263Z,10.22
2023-01-03T05:14:49.806Z,10.23
2023-01-03T05:17:20.535Z,10.30
2023-01-03T05:20:06.817Z,10.27
2023-01-03T05:22:53.710Z,10.21
2023-01-03T05:25:40.808Z,10.21
2023-01-03T05:28:13.794Z,10.23
2023-01-03T05:30:48.743Z,10.26
2023-01-03T05:33:17.549Z,10.29
2023-01-03T05:35:48.889Z,10.33
2023-01-03T05:38:17.728Z,10.35
2023-01-03T05:40:45.715Z,10.25
2023-01-03T05:43:14.307Z,10.15
2023-01-03T05:45:43.576Z,10.14
2023-01-03T05:48:13.124Z,10.17
2023-01-03T05:50:42.288Z,10.20
2023-01-03T05:53:11.043Z,10.21
2023-01-03T05:55:39.275Z,10.28
2023-01-03T05:58:09.143Z,10.26
2023-01-03T06:00:37.502Z,10.27
2023-01-03T06:03:06.534Z,10.24
2023-01-03T06:05:38.437Z,10.30
2023-01-03T06:08:07.653Z,10.30
2023-01-03T06:10:36.895Z,10.34
2023-01-03T06:13:05.811Z,10.36
2023-01-03T06:18:15.361Z,10.33
2023-01-03T06:29:25.534Z,10.41
2023-01-03T06:31:54.544Z,10.42
2023-01-03T06:34:23.502Z,10.38
2023-01-03T06:36:51.746Z,10.35
2023-01-03T06:39:20.993Z,10.36
2023-01-03T06:41:49.115Z,10.36
2023-01-03T06:44:18.168Z,10.35
2023-01-03T06:47:04.538Z,10.30
2023-01-03T07:45:45.363Z,10.53
2023-01-03T07:48:14.210Z,10.52
2023-01-03T07:50:42.317Z,10.58
2023-01-03T07:53:16.635Z,10.59
2023-01-03T08:25:57.479Z,10.84
2023-01-03T08:50:53.476Z,11.15
2023-01-03T08:59:31.917Z,11.14
2023-01-03T09:04:41.566Z,11.10
2023-01-03T09:07:10.343Z,11.15
2023-01-03T09:09:39.167Z,11.16
2023-01-03T09:12:07.981Z,11.21
2023-01-03T09:14:36.445Z,11.26
2023-01-03T09:17:04.571Z,11.28
2023-01-03T09:19:36.912Z,11.27
2023-01-03T09:22:05.007Z,11.36
2023-01-03T09:24:32.516Z,11.36
2023-01-03T09:27:00.700Z,11.32
2023-01-03T09:29:28.717Z,11.39
2023-01-03T09:31:56.500Z,11.41
2023-01-03T09:34:25.026Z,11.46
2023-01-03T09:36:53.229Z,11.38
2023-01-03T09:39:21.698Z,11.51
2023-01-03T09:42:09.559Z,11.57
2023-01-03T09:44:37.483Z,11.66
2023-01-03T09:47:05.733Z,11.65
2023-01-03T09:50:04.531Z,11.74
2023-01-03T09:52:47.945Z,11.81
2023-01-03T09:55:56.719Z,11.90
2023-01-03T09:58:48.965Z,11.80
2023-01-03T10:01:57.812Z,11.85
2023-01-03T10:04:33.780Z,11.88
2023-01-03T10:07:25.700Z,11.87
2023-01-03T10:09:57.938Z,11.97
2023-01-03T10:12:43.522Z,11.93
2023-01-03T10:15:13.256Z,12.07
2023-01-03T10:18:02.790Z,12.15
2023-01-03T10:20:46.837Z,12.15
2023-01-03T10:23:14.348Z,12.14
2023-01-03T10:25:43.218Z,12.24
2023-01-03T10:28:26.613Z,12.23
2023-01-03T10:31:09.161Z,12.29
2023-01-03T10:33:45.652Z,12.36
2023-01-03T10:36:13.681Z,12.34
2023-01-03T10:38:47.847Z,12.40
2023-01-03T10:41:24.024Z,12.41
2023-01-03T10:44:02.559Z,12.43
2023-01-03T10:46:30.941Z,12.44
2023-01-03T10:49:38.527Z,12.46
2023-01-03T10:52:18.436Z,12.50
2023-01-03T10:54:56.787Z,12.48
2023-01-03T10:57:48.462Z,12.41
2023-01-03T11:00:21.687Z,12.51
2023-01-03T11:03:21.479Z,12.56
2023-01-03T11:05:58.561Z,12.60
2023-01-03T11:08:40.598Z,12.58
2023-01-03T11:11:09.833Z,12.59
2023-01-03T11:13:39.745Z,12.64
2023-01-03T11:16:18.717Z,12.65
2023-01-03T11:19:01.458Z,12.69
2023-01-03T11:21:41.385Z,12.71
2023-01-03T11:25:00.406Z,12.75
2023-01-03T11:27:33.793Z,12.76
2023-01-03T11:30:23.374Z,12.76
2023-01-03T11:33:46.401Z,12.79
2023-01-03T11:36:31.408Z,12.83
2023-01-03T11:39:36.381Z,12.73
2023-01-03T11:42:13.407Z,12.76
2023-01-03T11:44:41.039Z,12.70
2023-01-03T11:47:40.386Z,12.67
2023-01-03T11:50:16.852Z,12.64
2023-01-03T11:53:03.220Z,12.58
2023-01-03T11:55:49.527Z,12.72
2023-01-03T11:58:43.198Z,12.90
2023-01-03T12:01:38.792Z,13.04
2023-01-03T12:04:08.969Z,13.24
2023-01-03T12:07:36.930Z,13.24
2023-01-03T12:10:15.727Z,-142.22
2023-01-03T12:13:10.261Z,13.69
2023-01-03T12:15:56.296Z,13.84
2023-01-03T12:18:30.173Z,13.84
2023-01-03T12:21:17.184Z,13.84
2023-01-03T12:24:01.526Z,13.85
2023-01-03T12:26:30.646Z,13.74
2023-01-03T12:29:13.887Z,13.71
2023-01-03T12:31:49.832Z,13.59
2023-01-03T12:34:22.733Z,13.63
2023-01-03T12:37:20.012Z,13.67
2023-01-03T12:40:05.819Z,13.93
2023-01-03T12:42:46.991Z,13.91
2023-01-03T12:45:34.297Z,13.93
2023-01-03T12:48:34.359Z,13.91
2023-01-03T12:51:02.037Z,13.85
2023-01-03T12:53:48.202Z,13.83
2023-01-03T12:56:39.344Z,13.86
2023-01-03T12:59:30.656Z,14.04
2023-01-03T13:02:00.885Z,14.18
2023-01-03T13:04:36.267Z,14.10
2023-01-03T13:07:05.224Z,14.13
2023-01-03T13:09:37.070Z,14.01
2023-01-03T13:12:08.873Z,13.94
2023-01-03T13:14:55.425Z,13.84
2023-01-03T13:17:29.276Z,13.80
2023-01-03T13:20:27.358Z,13.76
2023-01-03T13:22:54.887Z,13.75
2023-01-03T13:25:32.794Z,13.68
2023-01-03T13:28:02.304Z,13.67
2023-01-03T13:30:32.230Z,13.63
2023-01-03T13:33:07.218Z,13.64
2023-01-03T13:35:36.030Z,13.55
2023-01-03T13:38:37.717Z,13.61
2023-01-03T13:41:18.191Z,13.55
2023-01-03T13:43:50.412Z,13.53
2023-01-03T13:46:27.748Z,13.55
2023-01-03T13:49:09.115Z,13.47
2023-01-03T13:51:39.074Z,13.49
2023-01-03T13:54:23.480Z,13.40
2023-01-03T13:56:59.037Z,13.39
2023-01-03T13:59:34.111Z,13.24
2023-01-03T14:02:08.015Z,13.23
2023-01-03T14:05:03.168Z,13.26
2023-01-03T14:07:52.147Z,13.22
2023-01-03T14:10:38.506Z,13.31
2023-01-03T14:13:34.686Z,13.39
2023-01-03T14:16:13.914Z,13.43
2023-01-03T14:18:42.180Z,13.50
2023-01-03T14:21:15.649Z,13.46
2023-01-03T14:23:59.625Z,13.47
2023-01-03T14:26:27.622Z,13.44
2023-01-03T14:28:55.373Z,13.40
2023-01-03T14:31:51.416Z,13.37
2023-01-03T14:34:26.097Z,13.35
2023-01-03T14:36:54.142Z,13.30
2023-01-03T14:42:00.241Z,13.16
2023-01-03T14:44:29.291Z,13.13
2023-01-03T14:46:57.925Z,13.16
2023-01-03T14:49:24.451Z,13.09
2023-01-03T14:51:51.936Z,13.10
2023-01-03T14:54:20.455Z,13.14
2023-01-03T14:56:51.410Z,13.14
2023-01-03T14:59:19.910Z,13.09
2023-01-03T15:01:46.757Z,13.03
2023-01-03T15:04:15.421Z,13.04
2023-01-03T15:07:04.816Z,13.00
2023-01-03T15:09:37.028Z,13.02
2023-01-03T15:12:05.688Z,12.79
2023-01-03T15:14:34.623Z,12.75
2023-01-03T15:17:33.251Z,12.67
2023-01-03T15:20:01.489Z,12.66
2023-01-03T15:22:34.979Z,12.56
2023-01-03T15:25:06.589Z,12.50
2023-01-03T15:27:39.704Z,12.55
2023-01-03T15:30:26.362Z,12.55
2023-01-03T15:33:20.370Z,12.47
2023-01-03T15:35:48.012Z,12.39
2023-01-03T15:38:20.446Z,12.39
2023-01-03T15:40:49.245Z,12.37
2023-01-03T15:43:20.053Z,12.39
2023-01-03T15:45:57.288Z,12.42
2023-01-03T15:48:26.158Z,12.40
2023-01-03T15:50:55.911Z,12.34
2023-01-03T15:53:40.955Z,12.36
2023-01-03T15:56:18.246Z,12.38
2023-01-03T15:58:48.154Z,12.33
2023-01-03T16:01:16.574Z,12.31
2023-01-03T16:03:45.486Z,12.34
2023-01-03T16:06:14.100Z,12.33
2023-01-03T16:08:42.660Z,12.33
2023-01-03T16:11:19.411Z,12.24
2023-01-03T16:13:50.277Z,12.14
2023-01-03T16:16:26.625Z,12.16
2023-01-03T16:18:54.179Z,12.11
2023-01-03T16:21:21.973Z,12.05
2023-01-03T16:23:52.433Z,12.04
2023-01-03T16:26:20.333Z,12.01
2023-01-03T16:28:49.108Z,12.01
2023-01-03T16:31:18.743Z,11.99
2023-01-03T16:33:50.400Z,11.98
2023-01-03T16:36:35.426Z,11.97
2023-01-03T16:39:04.015Z,11.92
2023-01-03T16:41:32.369Z,11.93
2023-01-03T16:44:00.881Z,11.90
2023-01-03T16:46:29.389Z,11.89
2023-01-03T16:48:59.003Z,11.89
2023-01-03T16:51:31.586Z,11.92
2023-01-03T16:53:59.440Z,11.86
2023-01-03T16:56:27.862Z,11.86
2023-01-03T16:58:55.626Z,11.88
2023-01-03T17:01:24.675Z,11.91
2023-01-03T17:03:53.459Z,11.91
2023-01-03T17:06:25.483Z,11.87
2023-01-03T17:08:53.726Z,11.92
2023-01-03T17:11:25.217Z,11.95
2023-01-03T17:14:00.410Z,11.96
2023-01-03T17:16:29.241Z,11.83
2023-01-03T17:18:57.996Z,11.75
2023-01-03T17:21:25.553Z,11.77
2023-01-03T17:24:06.588Z,11.75
2023-01-03T17:26:39.053Z,11.69
2023-01-03T17:29:06.997Z,11.69
2023-01-03T17:31:34.749Z,11.67
2023-01-03T17:34:03.405Z,11.69
2023-01-03T17:36:32.471Z,11.68
2023-01-03T17:39:03.013Z,11.66
2023-01-03T17:41:30.815Z,11.63
2023-01-03T17:43:58.784Z,11.66
2023-01-03T17:46:45.234Z,11.62
2023-01-03T17:49:25.522Z,11.59
2023-01-03T17:51:57.344Z,11.51
2023-01-03T17:54:30.572Z,11.45
2023-01-03T17:56:58.608Z,11.43
2023-01-03T17:59:26.965Z,11.35
2023-01-03T18:01:54.815Z,11.44
2023-01-03T18:04:23.440Z,11.29
2023-01-03T18:06:56.325Z,11.24
2023-01-03T18:09:23.448Z,11.21
2023-01-03T18:11:51.369Z,11.18
2023-01-03T18:14:19.108Z,11.12
2023-01-03T18:16:53.148Z,11.14
2023-01-03T18:19:23.012Z,11.17
2023-01-03T18:21:50.505Z,11.24
2023-01-03T18:24:22.045Z,11.21
2023-01-03T18:26:53.180Z,11.21
2023-01-03T18:29:21.256Z,11.17
2023-01-03T18:31:49.403Z,11.16
2023-01-03T18:34:17.740Z,11.25
2023-01-03T18:36:49.742Z,11.23
2023-01-03T18:39:19.758Z,11.16
2023-01-03T18:41:47.794Z,11.11
2023-01-03T18:44:23.176Z,11.12
2023-01-03T18:47:11.437Z,11.11
2023-01-03T18:49:39.587Z,11.08
2023-01-03T18:52:07.108Z,11.07
2023-01-03T18:54:36.403Z,11.05
2023-01-03T18:57:03.443Z,11.04
2023-01-03T18:59:32.088Z,11.07
2023-01-03T19:01:59.887Z,11.13
2023-01-03T19:04:30.810Z,11.16
2023-01-03T19:06:59.135Z,11.18
2023-01-03T19:09:26.413Z,11.19
2023-01-03T19:11:53.819Z,11.17
2023-01-03T19:14:21.301Z,11.17
2023-01-03T19:16:48.962Z,11.18
2023-01-03T19:19:16.470Z,11.12
2023-01-03T19:21:45.932Z,11.12
2023-01-03T19:24:39.445Z,11.17
2023-01-03T19:27:27.039Z,11.13
2023-01-03T19:30:25.047Z,11.13
2023-01-03T19:33:13.341Z,11.10
2023-01-03T19:35:41.041Z,11.07
2023-01-03T19:38:09.920Z,11.08
2023-01-03T19:40:38.348Z,11.02
2023-01-03T19:43:05.763Z,11.02
2023-01-03T19:45:37.148Z,11.14
2023-01-03T19:48:10.038Z,11.09
2023-01-03T19:50:37.967Z,11.08
2023-01-03T19:53:06.369Z,11.04
2023-01-03T19:55:34.788Z,11.02
2023-01-03T19:58:06.354Z,11.01
2023-01-03T20:00:33.614Z,10.96
2023-01-03T20:03:05.969Z,10.96
2023-01-03T20:05:38.152Z,10.96
2023-01-03T20:08:11.777Z,10.97
2023-01-03T20:10:41.037Z,10.96
2023-01-03T20:13:12.002Z,10.96
2023-01-03T20:15:43.085Z,10.98
2023-01-03T20:18:31.549Z,10.97
2023-01-03T20:21:05.695Z,10.96
2023-01-03T20:23:35.242Z,10.92
2023-01-03T20:26:04.561Z,10.91
2023-01-03T20:28:35.598Z,10.91
2023-01-03T20:31:03.671Z,10.91
2023-01-03T20:33:31.720Z,10.86
2023-01-03T20:36:18.084Z,10.88
2023-01-03T20:38:50.733Z,10.77
2023-01-03T20:41:18.901Z,10.79
2023-01-03T20:43:45.716Z,10.79
2023-01-03T20:46:50.994Z,10.78
2023-01-03T20:49:20.419Z,10.74
2023-01-03T20:51:48.559Z,10.78
2023-01-03T20:54:16.629Z,10.85
2023-01-03T20:56:44.292Z,10.85
2023-01-03T20:59:19.067Z,10.80
2023-01-03T21:17:58.237Z,10.43
2023-01-03T21:20:30.435Z,10.38
2023-01-03T21:22:58.569Z,10.31
2023-01-03T21:33:32.577Z,10.23
2023-01-03T21:36:00.730Z,10.18
2023-01-03T21:38:28.676Z,10.16
2023-01-03T21:40:57.393Z,10.09
2023-01-03T21:43:25.888Z,10.09
2023-01-03T21:45:56.480Z,10.07
2023-01-03T21:48:24.601Z,10.04
2023-01-03T21:50:52.243Z,10.04
2023-01-03T21:53:23.274Z,10.06
2023-01-03T21:55:51.830Z,-142.22
2023-01-03T21:58:19.390Z,-142.22
2023-01-03T22:00:48.469Z,-142.22
2023-01-03T22:03:35.271Z,-142.22
2023-01-03T22:06:12.134Z,-142.22
2023-01-03T22:08:41.989Z,-142.22
2023-01-03T22:11:10.854Z,-142.22
2023-01-03T22:13:38.611Z,-142.22
2023-01-03T22:16:08.807Z,-142.22
2023-01-03T22:18:36.565Z,-142.22
2023-01-03T22:21:07.067Z,-142.22
2023-01-03T22:23:35.368Z,-142.22
2023-01-03T22:26:32.337Z,-142.22
2023-01-03T22:29:02.546Z,-142.22
2023-01-03T22:31:30.608Z,-142.22
2023-01-03T22:33:59.453Z,-142.22
2023-01-03T22:36:27.934Z,-142.22
2023-01-03T22:38:56.042Z,-142.22
2023-01-03T22:41:23.954Z,-142.22
2023-01-03T22:43:53.124Z,-142.22
2023-01-03T22:46:21.315Z,-142.22
2023-01-03T22:48:49.279Z,-142.22
2023-01-03T22:51:16.867Z,-142.22
2023-01-03T22:53:45.405Z,-142.22
2023-01-03T22:56:15.278Z,-142.22
2023-01-03T22:58:43.403Z,-142.22
2023-01-03T23:01:13.001Z,-142.22
2023-01-03T23:03:41.058Z,-142.22
2023-01-03T23:06:09.647Z,-142.22
2023-01-03T23:08:36.719Z,-142.22
2023-01-03T23:11:33.944Z,-142.22
2023-01-03T23:14:02.720Z,-142.22
2023-01-03T23:16:31.225Z,-142.22
2023-01-03T23:18:59.323Z,-142.22
2023-01-03T23:21:27.219Z,-142.22
2023-01-03T23:23:54.282Z,-142.22
2023-01-03T23:26:22.178Z,-142.22
2023-01-03T23:28:50.191Z,-142.22
2023-01-03T23:31:18.201Z,-142.22
2023-01-03T23:33:45.883Z,-142.22
2023-01-03T23:36:13.540Z,-142.22
2023-01-03T23:38:41.497Z,-142.22
2023-01-03T23:41:12.772Z,-142.22
2023-01-03T23:43:40.661Z,-142.22
2023-01-03T23:46:08.525Z,-142.22
2023-01-03T23:48:36.381Z,-142.22
2023-01-03T23:51:07.485Z,-142.22
2023-01-03T23:53:41.569Z,-142.22
2023-01-03T23:56:37.907Z,-142.22
2023-01-03T23:59:05.622Z,-142.22
